sensor_id;sensor_type;location;lat;lon;timestamp;P1;durP1;ratioP1;P2;durP2;ratioP2
7359;SDS011;3720;48.274;7.796;2024-03-02T00:00:31;3.63;;;2.40;;
7359;SDS011;3720;48.274;7.796;2024-03-02T00:03:02;4.60;;;2.33;;
7359;SDS011;3720;48.274;7.796;2024-03-02T00:05:35;3.15;;;2.20;;
7359;SDS011;3720;48.274;7.796;2024-03-02T00:08:07;3.40;;;2.22;;
7359;SDS011;3720;48.274;7.796;2024-03-02T00:10:40;4.38;;;2.38;;
7359;SDS011;3720;48.274;7.796;2024-03-02T00:13:12;3.80;;;2.53;;
7359;SDS011;3720;48.274;7.796;2024-03-02T00:15:45;5.20;;;3.00;;
7359;SDS011;3720;48.274;7.796;2024-03-02T00:18:20;4.85;;;2.80;;
7359;SDS011;3720;48.274;7.796;2024-03-02T00:20:53;5.20;;;3.28;;
7359;SDS011;3720;48.274;7.796;2024-03-02T00:23:27;4.43;;;3.03;;
7359;SDS011;3720;48.274;7.796;2024-03-02T00:26:02;4.13;;;2.92;;
7359;SDS011;3720;48.274;7.796;2024-03-02T00:28:35;4.90;;;3.20;;
7359;SDS011;3720;48.274;7.796;2024-03-02T00:31:08;4.70;;;2.97;;
7359;SDS011;3720;48.274;7.796;2024-03-02T00:33:42;8.05;;;3.08;;
7359;SDS011;3720;48.274;7.796;2024-03-02T00:36:15;4.60;;;2.95;;
7359;SDS011;3720;48.274;7.796;2024-03-02T00:38:53;4.00;;;3.00;;
7359;SDS011;3720;48.274;7.796;2024-03-02T00:41:29;6.28;;;3.78;;
7359;SDS011;3720;48.274;7.796;2024-03-02T00:44:02;9.02;;;4.60;;
7359;SDS011;3720;48.274;7.796;2024-03-02T00:46:36;6.43;;;4.57;;
7359;SDS011;3720;48.274;7.796;2024-03-02T00:49:11;7.45;;;4.32;;
7359;SDS011;3720;48.274;7.796;2024-03-02T00:51:51;5.78;;;4.15;;
7359;SDS011;3720;48.274;7.796;2024-03-02T00:54:24;5.93;;;4.18;;
7359;SDS011;3720;48.274;7.796;2024-03-02T00:57:00;7.85;;;4.28;;
7359;SDS011;3720;48.274;7.796;2024-03-02T00:59:31;8.60;;;4.63;;
7359;SDS011;3720;48.274;7.796;2024-03-02T01:02:03;6.40;;;4.10;;
7359;SDS011;3720;48.274;7.796;2024-03-02T01:04:35;5.15;;;3.60;;
7359;SDS011;3720;48.274;7.796;2024-03-02T01:07:07;4.55;;;3.35;;
7359;SDS011;3720;48.274;7.796;2024-03-02T01:09:39;5.22;;;3.47;;
7359;SDS011;3720;48.274;7.796;2024-03-02T01:12:13;4.07;;;3.05;;
7359;SDS011;3720;48.274;7.796;2024-03-02T01:14:45;4.93;;;3.53;;
7359;SDS011;3720;48.274;7.796;2024-03-02T01:17:16;4.82;;;3.10;;
7359;SDS011;3720;48.274;7.796;2024-03-02T01:19:48;5.53;;;3.38;;
7359;SDS011;3720;48.274;7.796;2024-03-02T01:22:20;5.80;;;3.58;;
7359;SDS011;3720;48.274;7.796;2024-03-02T01:24:55;5.78;;;3.25;;
7359;SDS011;3720;48.274;7.796;2024-03-02T01:27:28;5.00;;;3.15;;
7359;SDS011;3720;48.274;7.796;2024-03-02T01:30:00;5.38;;;3.42;;
7359;SDS011;3720;48.274;7.796;2024-03-02T01:32:32;4.55;;;3.15;;
7359;SDS011;3720;48.274;7.796;2024-03-02T01:35:04;5.95;;;3.70;;
7359;SDS011;3720;48.274;7.796;2024-03-02T01:37:37;5.40;;;3.38;;
7359;SDS011;3720;48.274;7.796;2024-03-02T01:40:09;5.55;;;3.20;;
7359;SDS011;3720;48.274;7.796;2024-03-02T01:42:43;7.65;;;3.92;;
7359;SDS011;3720;48.274;7.796;2024-03-02T01:45:15;5.32;;;3.38;;
7359;SDS011;3720;48.274;7.796;2024-03-02T01:47:47;4.63;;;3.35;;
7359;SDS011;3720;48.274;7.796;2024-03-02T01:50:24;6.68;;;3.70;;
7359;SDS011;3720;48.274;7.796;2024-03-02T01:52:57;5.95;;;3.70;;
7359;SDS011;3720;48.274;7.796;2024-03-02T01:55:30;6.57;;;3.65;;
7359;SDS011;3720;48.274;7.796;2024-03-02T01:58:04;5.35;;;3.40;;
7359;SDS011;3720;48.274;7.796;2024-03-02T02:00:37;6.97;;;3.75;;
7359;SDS011;3720;48.274;7.796;2024-03-02T02:03:08;5.57;;;3.58;;
7359;SDS011;3720;48.274;7.796;2024-03-02T02:05:41;5.70;;;3.70;;
7359;SDS011;3720;48.274;7.796;2024-03-02T02:08:13;5.32;;;3.55;;
7359;SDS011;3720;48.274;7.796;2024-03-02T02:10:45;5.10;;;3.30;;
7359;SDS011;3720;48.274;7.796;2024-03-02T02:13:18;4.60;;;3.15;;
7359;SDS011;3720;48.274;7.796;2024-03-02T02:15:50;4.80;;;3.30;;
7359;SDS011;3720;48.274;7.796;2024-03-02T02:18:23;5.25;;;3.63;;
7359;SDS011;3720;48.274;7.796;2024-03-02T02:20:55;4.75;;;3.40;;
7359;SDS011;3720;48.274;7.796;2024-03-02T02:23:28;6.05;;;3.80;;
7359;SDS011;3720;48.274;7.796;2024-03-02T02:26:00;10.25;;;4.22;;
7359;SDS011;3720;48.274;7.796;2024-03-02T02:28:33;7.50;;;4.68;;
7359;SDS011;3720;48.274;7.796;2024-03-02T02:31:05;6.45;;;4.20;;
7359;SDS011;3720;48.274;7.796;2024-03-02T02:33:38;8.82;;;4.53;;
7359;SDS011;3720;48.274;7.796;2024-03-02T02:36:10;6.28;;;4.22;;
7359;SDS011;3720;48.274;7.796;2024-03-02T02:38:44;6.05;;;3.42;;
7359;SDS011;3720;48.274;7.796;2024-03-02T02:41:17;5.22;;;3.63;;
7359;SDS011;3720;48.274;7.796;2024-03-02T02:43:49;5.93;;;3.42;;
7359;SDS011;3720;48.274;7.796;2024-03-02T02:46:31;6.80;;;4.00;;
7359;SDS011;3720;48.274;7.796;2024-03-02T02:49:03;6.28;;;3.80;;
7359;SDS011;3720;48.274;7.796;2024-03-02T02:51:35;5.47;;;3.55;;
7359;SDS011;3720;48.274;7.796;2024-03-02T02:54:08;5.03;;;3.17;;
7359;SDS011;3720;48.274;7.796;2024-03-02T02:56:39;5.93;;;3.30;;
7359;SDS011;3720;48.274;7.796;2024-03-02T02:59:11;5.55;;;3.15;;
7359;SDS011;3720;48.274;7.796;2024-03-02T03:01:43;6.43;;;3.13;;
7359;SDS011;3720;48.274;7.796;2024-03-02T03:04:15;6.72;;;3.63;;
7359;SDS011;3720;48.274;7.796;2024-03-02T03:06:47;6.07;;;3.55;;
7359;SDS011;3720;48.274;7.796;2024-03-02T03:09:20;3.80;;;2.83;;
7359;SDS011;3720;48.274;7.796;2024-03-02T03:11:52;4.20;;;3.08;;
7359;SDS011;3720;48.274;7.796;2024-03-02T03:14:23;5.35;;;3.45;;
7359;SDS011;3720;48.274;7.796;2024-03-02T03:16:55;3.72;;;2.83;;
7359;SDS011;3720;48.274;7.796;2024-03-02T03:19:27;4.30;;;3.17;;
7359;SDS011;3720;48.274;7.796;2024-03-02T03:21:59;4.57;;;3.13;;
7359;SDS011;3720;48.274;7.796;2024-03-02T03:24:32;6.20;;;3.67;;
7359;SDS011;3720;48.274;7.796;2024-03-02T03:27:04;4.93;;;3.17;;
7359;SDS011;3720;48.274;7.796;2024-03-02T03:29:36;6.03;;;3.33;;
7359;SDS011;3720;48.274;7.796;2024-03-02T03:32:08;4.35;;;3.20;;
7359;SDS011;3720;48.274;7.796;2024-03-02T03:34:39;5.00;;;3.58;;
7359;SDS011;3720;48.274;7.796;2024-03-02T03:37:11;7.32;;;3.75;;
7359;SDS011;3720;48.274;7.796;2024-03-02T03:39:45;5.40;;;3.58;;
7359;SDS011;3720;48.274;7.796;2024-03-02T03:42:16;6.30;;;4.03;;
7359;SDS011;3720;48.274;7.796;2024-03-02T03:44:48;7.30;;;4.05;;
7359;SDS011;3720;48.274;7.796;2024-03-02T03:47:20;6.60;;;3.85;;
7359;SDS011;3720;48.274;7.796;2024-03-02T03:49:52;5.95;;;4.03;;
7359;SDS011;3720;48.274;7.796;2024-03-02T03:52:23;7.40;;;4.15;;
7359;SDS011;3720;48.274;7.796;2024-03-02T03:54:57;6.93;;;3.90;;
7359;SDS011;3720;48.274;7.796;2024-03-02T03:57:29;5.95;;;3.72;;
7359;SDS011;3720;48.274;7.796;2024-03-02T04:00:01;6.45;;;4.13;;
7359;SDS011;3720;48.274;7.796;2024-03-02T04:02:33;5.53;;;3.45;;
7359;SDS011;3720;48.274;7.796;2024-03-02T04:05:05;4.00;;;3.08;;
7359;SDS011;3720;48.274;7.796;2024-03-02T04:07:39;3.40;;;2.67;;
7359;SDS011;3720;48.274;7.796;2024-03-02T04:10:12;4.75;;;3.17;;
7359;SDS011;3720;48.274;7.796;2024-03-02T04:12:46;4.03;;;2.70;;
7359;SDS011;3720;48.274;7.796;2024-03-02T04:15:18;4.05;;;2.95;;
7359;SDS011;3720;48.274;7.796;2024-03-02T04:17:50;5.28;;;3.08;;
7359;SDS011;3720;48.274;7.796;2024-03-02T04:20:21;5.82;;;3.50;;
7359;SDS011;3720;48.274;7.796;2024-03-02T04:22:53;4.57;;;2.88;;
7359;SDS011;3720;48.274;7.796;2024-03-02T04:25:26;4.03;;;3.30;;
7359;SDS011;3720;48.274;7.796;2024-03-02T04:27:58;4.63;;;3.10;;
7359;SDS011;3720;48.274;7.796;2024-03-02T04:30:30;5.75;;;3.60;;
7359;SDS011;3720;48.274;7.796;2024-03-02T04:33:02;4.68;;;3.38;;
7359;SDS011;3720;48.274;7.796;2024-03-02T04:35:35;4.85;;;3.30;;
7359;SDS011;3720;48.274;7.796;2024-03-02T04:38:07;5.03;;;3.40;;
7359;SDS011;3720;48.274;7.796;2024-03-02T04:40:40;5.03;;;3.60;;
7359;SDS011;3720;48.274;7.796;2024-03-02T04:43:12;7.25;;;3.67;;
7359;SDS011;3720;48.274;7.796;2024-03-02T04:45:46;6.05;;;4.50;;
7359;SDS011;3720;48.274;7.796;2024-03-02T04:48:18;5.70;;;3.97;;
7359;SDS011;3720;48.274;7.796;2024-03-02T04:50:50;5.95;;;4.03;;
7359;SDS011;3720;48.274;7.796;2024-03-02T04:53:22;7.25;;;4.47;;
7359;SDS011;3720;48.274;7.796;2024-03-02T04:55:55;8.82;;;4.38;;
7359;SDS011;3720;48.274;7.796;2024-03-02T04:58:57;8.50;;;4.50;;
7359;SDS011;3720;48.274;7.796;2024-03-02T05:01:29;6.93;;;4.60;;
7359;SDS011;3720;48.274;7.796;2024-03-02T05:04:01;8.60;;;4.57;;
7359;SDS011;3720;48.274;7.796;2024-03-02T05:06:33;6.75;;;4.50;;
7359;SDS011;3720;48.274;7.796;2024-03-02T05:09:05;7.13;;;4.32;;
7359;SDS011;3720;48.274;7.796;2024-03-02T05:11:38;7.40;;;4.70;;
7359;SDS011;3720;48.274;7.796;2024-03-02T05:14:26;9.52;;;6.00;;
7359;SDS011;3720;48.274;7.796;2024-03-02T05:16:58;10.50;;;6.47;;
7359;SDS011;3720;48.274;7.796;2024-03-02T05:19:30;10.05;;;6.50;;
7359;SDS011;3720;48.274;7.796;2024-03-02T05:22:02;8.38;;;5.45;;
7359;SDS011;3720;48.274;7.796;2024-03-02T05:24:34;8.23;;;4.80;;
7359;SDS011;3720;48.274;7.796;2024-03-02T05:27:07;7.72;;;5.20;;
7359;SDS011;3720;48.274;7.796;2024-03-02T05:29:39;7.85;;;4.95;;
7359;SDS011;3720;48.274;7.796;2024-03-02T05:32:11;7.07;;;4.82;;
7359;SDS011;3720;48.274;7.796;2024-03-02T05:34:43;7.93;;;4.60;;
7359;SDS011;3720;48.274;7.796;2024-03-02T05:37:15;8.15;;;4.90;;
7359;SDS011;3720;48.274;7.796;2024-03-02T05:39:47;7.53;;;4.90;;
7359;SDS011;3720;48.274;7.796;2024-03-02T05:42:20;7.65;;;5.00;;
7359;SDS011;3720;48.274;7.796;2024-03-02T05:44:52;7.85;;;5.18;;
7359;SDS011;3720;48.274;7.796;2024-03-02T05:47:24;7.65;;;5.00;;
7359;SDS011;3720;48.274;7.796;2024-03-02T05:49:56;9.05;;;5.03;;
7359;SDS011;3720;48.274;7.796;2024-03-02T05:52:27;7.57;;;4.93;;
7359;SDS011;3720;48.274;7.796;2024-03-02T05:54:59;7.72;;;4.97;;
7359;SDS011;3720;48.274;7.796;2024-03-02T05:57:32;7.80;;;4.97;;
7359;SDS011;3720;48.274;7.796;2024-03-02T06:00:19;12.52;;;6.90;;
7359;SDS011;3720;48.274;7.796;2024-03-02T06:02:52;9.70;;;5.68;;
7359;SDS011;3720;48.274;7.796;2024-03-02T06:05:24;7.60;;;5.07;;
7359;SDS011;3720;48.274;7.796;2024-03-02T06:07:56;8.00;;;5.45;;
7359;SDS011;3720;48.274;7.796;2024-03-02T06:10:27;9.07;;;5.65;;
7359;SDS011;3720;48.274;7.796;2024-03-02T06:13:01;16.13;;;7.68;;
7359;SDS011;3720;48.274;7.796;2024-03-02T06:15:32;13.65;;;6.85;;
7359;SDS011;3720;48.274;7.796;2024-03-02T06:18:06;13.70;;;7.28;;
7359;SDS011;3720;48.274;7.796;2024-03-02T06:20:38;11.68;;;6.90;;
7359;SDS011;3720;48.274;7.796;2024-03-02T06:23:09;9.90;;;6.35;;
7359;SDS011;3720;48.274;7.796;2024-03-02T06:25:41;9.63;;;5.70;;
7359;SDS011;3720;48.274;7.796;2024-03-02T06:28:14;9.52;;;5.85;;
7359;SDS011;3720;48.274;7.796;2024-03-02T06:30:46;12.63;;;6.80;;
7359;SDS011;3720;48.274;7.796;2024-03-02T06:33:18;8.68;;;5.93;;
7359;SDS011;3720;48.274;7.796;2024-03-02T06:35:50;11.80;;;6.40;;
7359;SDS011;3720;48.274;7.796;2024-03-02T06:38:22;10.35;;;6.30;;
7359;SDS011;3720;48.274;7.796;2024-03-02T06:40:53;10.07;;;6.10;;
7359;SDS011;3720;48.274;7.796;2024-03-02T06:43:27;10.73;;;6.47;;
7359;SDS011;3720;48.274;7.796;2024-03-02T06:45:59;9.70;;;6.53;;
7359;SDS011;3720;48.274;7.796;2024-03-02T06:48:31;10.10;;;5.93;;
7359;SDS011;3720;48.274;7.796;2024-03-02T06:51:03;9.55;;;6.43;;
7359;SDS011;3720;48.274;7.796;2024-03-02T06:53:35;10.18;;;6.45;;
7359;SDS011;3720;48.274;7.796;2024-03-02T06:56:07;11.98;;;6.75;;
7359;SDS011;3720;48.274;7.796;2024-03-02T06:58:40;13.13;;;7.82;;
7359;SDS011;3720;48.274;7.796;2024-03-02T07:01:13;12.18;;;6.93;;
7359;SDS011;3720;48.274;7.796;2024-03-02T07:03:45;10.65;;;6.60;;
7359;SDS011;3720;48.274;7.796;2024-03-02T07:06:17;10.90;;;6.57;;
7359;SDS011;3720;48.274;7.796;2024-03-02T07:08:48;8.85;;;5.95;;
7359;SDS011;3720;48.274;7.796;2024-03-02T07:11:20;11.70;;;6.45;;
7359;SDS011;3720;48.274;7.796;2024-03-02T07:13:53;9.00;;;6.00;;
7359;SDS011;3720;48.274;7.796;2024-03-02T07:16:25;8.10;;;5.70;;
7359;SDS011;3720;48.274;7.796;2024-03-02T07:19:03;9.55;;;5.97;;
7359;SDS011;3720;48.274;7.796;2024-03-02T07:21:34;10.52;;;5.70;;
7359;SDS011;3720;48.274;7.796;2024-03-02T07:24:06;7.68;;;5.10;;
7359;SDS011;3720;48.274;7.796;2024-03-02T07:26:42;6.90;;;5.23;;
7359;SDS011;3720;48.274;7.796;2024-03-02T07:29:16;8.65;;;5.82;;
7359;SDS011;3720;48.274;7.796;2024-03-02T07:31:47;8.48;;;5.93;;
7359;SDS011;3720;48.274;7.796;2024-03-02T07:34:19;11.82;;;7.35;;
7359;SDS011;3720;48.274;7.796;2024-03-02T07:36:51;12.32;;;8.30;;
7359;SDS011;3720;48.274;7.796;2024-03-02T07:39:23;13.57;;;8.52;;
7359;SDS011;3720;48.274;7.796;2024-03-02T07:41:55;13.75;;;8.88;;
7359;SDS011;3720;48.274;7.796;2024-03-02T07:44:28;12.68;;;8.18;;
7359;SDS011;3720;48.274;7.796;2024-03-02T07:47:00;16.38;;;9.48;;
7359;SDS011;3720;48.274;7.796;2024-03-02T07:49:32;14.60;;;9.15;;
7359;SDS011;3720;48.274;7.796;2024-03-02T07:52:04;14.10;;;8.70;;
7359;SDS011;3720;48.274;7.796;2024-03-02T07:54:37;13.75;;;8.75;;
7359;SDS011;3720;48.274;7.796;2024-03-02T07:57:09;14.85;;;10.02;;
7359;SDS011;3720;48.274;7.796;2024-03-02T07:59:42;15.45;;;10.88;;
7359;SDS011;3720;48.274;7.796;2024-03-02T08:02:24;15.68;;;10.57;;
7359;SDS011;3720;48.274;7.796;2024-03-02T08:04:56;16.58;;;11.50;;
7359;SDS011;3720;48.274;7.796;2024-03-02T08:07:28;16.35;;;11.45;;
7359;SDS011;3720;48.274;7.796;2024-03-02T08:09:59;15.23;;;10.27;;
7359;SDS011;3720;48.274;7.796;2024-03-02T08:12:31;14.77;;;8.70;;
7359;SDS011;3720;48.274;7.796;2024-03-02T08:15:05;10.65;;;7.70;;
7359;SDS011;3720;48.274;7.796;2024-03-02T08:17:38;12.88;;;8.38;;
7359;SDS011;3720;48.274;7.796;2024-03-02T08:20:14;12.60;;;8.40;;
7359;SDS011;3720;48.274;7.796;2024-03-02T08:22:46;11.07;;;7.68;;
7359;SDS011;3720;48.274;7.796;2024-03-02T08:25:18;11.68;;;7.43;;
7359;SDS011;3720;48.274;7.796;2024-03-02T08:27:50;12.98;;;8.05;;
7359;SDS011;3720;48.274;7.796;2024-03-02T08:30:23;12.57;;;6.68;;
7359;SDS011;3720;48.274;7.796;2024-03-02T08:32:55;10.23;;;7.07;;
7359;SDS011;3720;48.274;7.796;2024-03-02T08:35:27;12.07;;;7.38;;
7359;SDS011;3720;48.274;7.796;2024-03-02T08:37:59;9.93;;;6.82;;
7359;SDS011;3720;48.274;7.796;2024-03-02T08:40:31;9.77;;;6.20;;
7359;SDS011;3720;48.274;7.796;2024-03-02T08:43:03;9.73;;;6.20;;
7359;SDS011;3720;48.274;7.796;2024-03-02T08:45:36;8.05;;;5.90;;
7359;SDS011;3720;48.274;7.796;2024-03-02T08:48:09;8.25;;;5.90;;
7359;SDS011;3720;48.274;7.796;2024-03-02T08:50:41;10.80;;;5.70;;
7359;SDS011;3720;48.274;7.796;2024-03-02T08:53:13;9.40;;;5.85;;
7359;SDS011;3720;48.274;7.796;2024-03-02T08:55:48;7.47;;;5.45;;
7359;SDS011;3720;48.274;7.796;2024-03-02T08:58:20;7.85;;;5.45;;
7359;SDS011;3720;48.274;7.796;2024-03-02T09:00:53;8.40;;;5.50;;
7359;SDS011;3720;48.274;7.796;2024-03-02T09:03:25;7.90;;;5.30;;
7359;SDS011;3720;48.274;7.796;2024-03-02T09:05:57;10.25;;;5.57;;
7359;SDS011;3720;48.274;7.796;2024-03-02T09:08:29;9.52;;;5.88;;
7359;SDS011;3720;48.274;7.796;2024-03-02T09:11:00;10.15;;;5.70;;
7359;SDS011;3720;48.274;7.796;2024-03-02T09:13:32;7.95;;;5.63;;
7359;SDS011;3720;48.274;7.796;2024-03-02T09:16:06;10.05;;;6.30;;
7359;SDS011;3720;48.274;7.796;2024-03-02T09:18:40;14.17;;;6.53;;
7359;SDS011;3720;48.274;7.796;2024-03-02T09:21:12;13.27;;;7.30;;
7359;SDS011;3720;48.274;7.796;2024-03-02T09:23:45;13.60;;;8.05;;
7359;SDS011;3720;48.274;7.796;2024-03-02T09:26:18;14.32;;;8.15;;
7359;SDS011;3720;48.274;7.796;2024-03-02T09:28:50;15.05;;;7.75;;
7359;SDS011;3720;48.274;7.796;2024-03-02T09:31:24;11.88;;;7.95;;
7359;SDS011;3720;48.274;7.796;2024-03-02T09:33:56;11.55;;;8.27;;
7359;SDS011;3720;48.274;7.796;2024-03-02T09:36:27;11.93;;;7.45;;
7359;SDS011;3720;48.274;7.796;2024-03-02T09:38:59;11.30;;;7.00;;
7359;SDS011;3720;48.274;7.796;2024-03-02T09:41:33;10.18;;;6.40;;
7359;SDS011;3720;48.274;7.796;2024-03-02T09:44:05;12.90;;;6.75;;
7359;SDS011;3720;48.274;7.796;2024-03-02T09:46:39;9.45;;;6.43;;
7359;SDS011;3720;48.274;7.796;2024-03-02T09:49:13;11.05;;;6.43;;
7359;SDS011;3720;48.274;7.796;2024-03-02T09:51:46;9.00;;;6.18;;
7359;SDS011;3720;48.274;7.796;2024-03-02T09:54:19;7.65;;;5.85;;
7359;SDS011;3720;48.274;7.796;2024-03-02T09:56:51;19.10;;;5.15;;
7359;SDS011;3720;48.274;7.796;2024-03-02T09:59:23;16.55;;;5.00;;
7359;SDS011;3720;48.274;7.796;2024-03-02T10:01:59;10.85;;;5.32;;
7359;SDS011;3720;48.274;7.796;2024-03-02T10:04:32;8.82;;;6.47;;
7359;SDS011;3720;48.274;7.796;2024-03-02T10:07:12;7.85;;;5.60;;
7359;SDS011;3720;48.274;7.796;2024-03-02T10:09:45;8.05;;;4.80;;
7359;SDS011;3720;48.274;7.796;2024-03-02T10:12:18;6.18;;;4.15;;
7359;SDS011;3720;48.274;7.796;2024-03-02T10:14:50;7.47;;;4.65;;
7359;SDS011;3720;48.274;7.796;2024-03-02T10:17:39;6.00;;;4.30;;
7359;SDS011;3720;48.274;7.796;2024-03-02T10:20:23;5.53;;;4.18;;
7359;SDS011;3720;48.274;7.796;2024-03-02T10:22:55;11.02;;;3.90;;
7359;SDS011;3720;48.274;7.796;2024-03-02T10:25:40;6.97;;;4.10;;
7359;SDS011;3720;48.274;7.796;2024-03-02T10:28:12;4.72;;;3.60;;
7359;SDS011;3720;48.274;7.796;2024-03-02T10:30:44;5.05;;;3.50;;
7359;SDS011;3720;48.274;7.796;2024-03-02T10:33:21;7.30;;;3.80;;
7359;SDS011;3720;48.274;7.796;2024-03-02T10:35:53;7.28;;;3.97;;
7359;SDS011;3720;48.274;7.796;2024-03-02T10:38:25;5.70;;;3.53;;
7359;SDS011;3720;48.274;7.796;2024-03-02T10:40:57;6.18;;;3.67;;
7359;SDS011;3720;48.274;7.796;2024-03-02T10:43:30;4.82;;;3.08;;
7359;SDS011;3720;48.274;7.796;2024-03-02T10:46:03;4.18;;;3.10;;
7359;SDS011;3720;48.274;7.796;2024-03-02T10:48:36;4.00;;;2.85;;
7359;SDS011;3720;48.274;7.796;2024-03-02T10:51:13;4.03;;;2.90;;
7359;SDS011;3720;48.274;7.796;2024-03-02T10:53:44;4.45;;;2.72;;
7359;SDS011;3720;48.274;7.796;2024-03-02T10:56:22;2.83;;;2.22;;
7359;SDS011;3720;48.274;7.796;2024-03-02T10:59:01;2.72;;;2.10;;
7359;SDS011;3720;48.274;7.796;2024-03-02T11:01:34;3.22;;;2.50;;
7359;SDS011;3720;48.274;7.796;2024-03-02T11:04:11;3.50;;;2.22;;
7359;SDS011;3720;48.274;7.796;2024-03-02T11:09:19;3.22;;;2.30;;
7359;SDS011;3720;48.274;7.796;2024-03-02T11:11:54;3.60;;;2.38;;
7359;SDS011;3720;48.274;7.796;2024-03-02T11:14:32;3.50;;;2.20;;
7359;SDS011;3720;48.274;7.796;2024-03-02T11:17:04;2.63;;;1.88;;
7359;SDS011;3720;48.274;7.796;2024-03-02T11:19:38;2.97;;;1.92;;
7359;SDS011;3720;48.274;7.796;2024-03-02T11:22:10;3.67;;;1.90;;
7359;SDS011;3720;48.274;7.796;2024-03-02T11:24:47;2.03;;;1.10;;
7359;SDS011;3720;48.274;7.796;2024-03-02T11:30:11;1.27;;;1.00;;
7359;SDS011;3720;48.274;7.796;2024-03-02T11:33:23;0.82;;;0.70;;
7359;SDS011;3720;48.274;7.796;2024-03-02T11:36:00;1.45;;;1.20;;
7359;SDS011;3720;48.274;7.796;2024-03-02T11:38:33;1.58;;;1.15;;
7359;SDS011;3720;48.274;7.796;2024-03-02T11:41:07;1.80;;;1.30;;
7359;SDS011;3720;48.274;7.796;2024-03-02T11:43:39;1.92;;;1.30;;
7359;SDS011;3720;48.274;7.796;2024-03-02T11:46:15;1.02;;;0.90;;
7359;SDS011;3720;48.274;7.796;2024-03-02T11:48:47;2.88;;;0.95;;
7359;SDS011;3720;48.274;7.796;2024-03-02T11:51:19;1.48;;;1.10;;
7359;SDS011;3720;48.274;7.796;2024-03-02T11:53:51;1.02;;;0.80;;
7359;SDS011;3720;48.274;7.796;2024-03-02T11:56:25;0.80;;;0.70;;
7359;SDS011;3720;48.274;7.796;2024-03-02T11:58:58;1.27;;;0.93;;
7359;SDS011;3720;48.274;7.796;2024-03-02T12:01:31;1.35;;;0.90;;
7359;SDS011;3720;48.274;7.796;2024-03-02T12:04:06;1.40;;;0.90;;
7359;SDS011;3720;48.274;7.796;2024-03-02T12:06:38;1.38;;;0.95;;
7359;SDS011;3720;48.274;7.796;2024-03-02T12:09:10;2.15;;;0.80;;
7359;SDS011;3720;48.274;7.796;2024-03-02T12:11:42;3.15;;;1.05;;
7359;SDS011;3720;48.274;7.796;2024-03-02T12:14:14;3.03;;;0.70;;
7359;SDS011;3720;48.274;7.796;2024-03-02T12:16:47;1.13;;;0.70;;
7359;SDS011;3720;48.274;7.796;2024-03-02T12:19:19;1.40;;;0.85;;
7359;SDS011;3720;48.274;7.796;2024-03-02T12:21:51;1.92;;;1.20;;
7359;SDS011;3720;48.274;7.796;2024-03-02T12:24:25;1.40;;;0.98;;
7359;SDS011;3720;48.274;7.796;2024-03-02T12:26:58;1.60;;;1.38;;
7359;SDS011;3720;48.274;7.796;2024-03-02T12:29:31;1.70;;;1.27;;
7359;SDS011;3720;48.274;7.796;2024-03-02T12:32:05;2.30;;;1.17;;
7359;SDS011;3720;48.274;7.796;2024-03-02T12:34:37;0.80;;;0.80;;
7359;SDS011;3720;48.274;7.796;2024-03-02T12:37:11;1.35;;;0.95;;
7359;SDS011;3720;48.274;7.796;2024-03-02T12:39:44;1.23;;;0.95;;
7359;SDS011;3720;48.274;7.796;2024-03-02T12:42:17;1.45;;;0.90;;
7359;SDS011;3720;48.274;7.796;2024-03-02T12:44:48;2.92;;;1.10;;
7359;SDS011;3720;48.274;7.796;2024-03-02T12:47:25;1.15;;;0.85;;
7359;SDS011;3720;48.274;7.796;2024-03-02T12:49:57;1.63;;;0.90;;
7359;SDS011;3720;48.274;7.796;2024-03-02T12:52:30;1.20;;;0.98;;
7359;SDS011;3720;48.274;7.796;2024-03-02T12:55:03;1.15;;;0.80;;
7359;SDS011;3720;48.274;7.796;2024-03-02T12:57:36;1.63;;;0.98;;
7359;SDS011;3720;48.274;7.796;2024-03-02T13:00:10;1.88;;;0.80;;
7359;SDS011;3720;48.274;7.796;2024-03-02T13:02:45;0.98;;;0.80;;
7359;SDS011;3720;48.274;7.796;2024-03-02T13:05:17;1.00;;;0.63;;
7359;SDS011;3720;48.274;7.796;2024-03-02T13:07:50;0.85;;;0.70;;
7359;SDS011;3720;48.274;7.796;2024-03-02T13:10:22;1.10;;;0.70;;
7359;SDS011;3720;48.274;7.796;2024-03-02T13:12:53;2.40;;;1.10;;
7359;SDS011;3720;48.274;7.796;2024-03-02T13:15:27;1.30;;;1.00;;
7359;SDS011;3720;48.274;7.796;2024-03-02T13:18:00;1.65;;;1.02;;
7359;SDS011;3720;48.274;7.796;2024-03-02T13:20:32;1.65;;;1.00;;
7359;SDS011;3720;48.274;7.796;2024-03-02T13:23:04;1.20;;;1.00;;
7359;SDS011;3720;48.274;7.796;2024-03-02T13:25:36;3.17;;;0.90;;
7359;SDS011;3720;48.274;7.796;2024-03-02T13:28:08;1.58;;;0.68;;
7359;SDS011;3720;48.274;7.796;2024-03-02T13:30:40;1.58;;;0.60;;
7359;SDS011;3720;48.274;7.796;2024-03-02T13:33:14;1.90;;;0.73;;
7359;SDS011;3720;48.274;7.796;2024-03-02T13:35:45;1.23;;;0.80;;
7359;SDS011;3720;48.274;7.796;2024-03-02T13:38:18;0.85;;;0.70;;
7359;SDS011;3720;48.274;7.796;2024-03-02T13:40:50;0.60;;;0.60;;
7359;SDS011;3720;48.274;7.796;2024-03-02T13:43:22;0.80;;;0.65;;
7359;SDS011;3720;48.274;7.796;2024-03-02T13:45:54;0.80;;;0.65;;
7359;SDS011;3720;48.274;7.796;2024-03-02T13:48:28;0.77;;;0.70;;
7359;SDS011;3720;48.274;7.796;2024-03-02T13:51:00;0.90;;;0.68;;
7359;SDS011;3720;48.274;7.796;2024-03-02T13:53:32;1.40;;;0.80;;
7359;SDS011;3720;48.274;7.796;2024-03-02T13:56:05;0.93;;;0.70;;
7359;SDS011;3720;48.274;7.796;2024-03-02T13:58:37;2.20;;;0.75;;
7359;SDS011;3720;48.274;7.796;2024-03-02T14:01:09;1.63;;;0.70;;
7359;SDS011;3720;48.274;7.796;2024-03-02T14:03:43;1.63;;;0.77;;
7359;SDS011;3720;48.274;7.796;2024-03-02T14:06:16;1.30;;;0.70;;
7359;SDS011;3720;48.274;7.796;2024-03-02T14:08:48;1.17;;;0.63;;
7359;SDS011;3720;48.274;7.796;2024-03-02T14:11:20;0.70;;;0.70;;
7359;SDS011;3720;48.274;7.796;2024-03-02T14:13:51;0.70;;;0.60;;
7359;SDS011;3720;48.274;7.796;2024-03-02T14:16:24;0.93;;;0.70;;
7359;SDS011;3720;48.274;7.796;2024-03-02T14:18:58;0.60;;;0.50;;
7359;SDS011;3720;48.274;7.796;2024-03-02T14:21:30;0.70;;;0.70;;
7359;SDS011;3720;48.274;7.796;2024-03-02T14:24:02;0.80;;;0.60;;
7359;SDS011;3720;48.274;7.796;2024-03-02T14:26:34;2.17;;;0.73;;
7359;SDS011;3720;48.274;7.796;2024-03-02T14:29:07;0.98;;;0.70;;
7359;SDS011;3720;48.274;7.796;2024-03-02T14:31:39;1.40;;;0.60;;
7359;SDS011;3720;48.274;7.796;2024-03-02T14:34:12;0.80;;;0.50;;
7359;SDS011;3720;48.274;7.796;2024-03-02T14:36:44;0.60;;;0.50;;
7359;SDS011;3720;48.274;7.796;2024-03-02T14:39:16;1.25;;;0.60;;
7359;SDS011;3720;48.274;7.796;2024-03-02T14:41:49;1.33;;;0.60;;
7359;SDS011;3720;48.274;7.796;2024-03-02T14:44:21;1.77;;;0.70;;
7359;SDS011;3720;48.274;7.796;2024-03-02T14:46:53;0.80;;;0.60;;
7359;SDS011;3720;48.274;7.796;2024-03-02T14:49:27;1.35;;;0.70;;
7359;SDS011;3720;48.274;7.796;2024-03-02T14:51:59;1.63;;;0.70;;
7359;SDS011;3720;48.274;7.796;2024-03-02T14:54:31;0.90;;;0.70;;
7359;SDS011;3720;48.274;7.796;2024-03-02T14:57:03;1.10;;;0.60;;
7359;SDS011;3720;48.274;7.796;2024-03-02T14:59:35;0.70;;;0.60;;
7359;SDS011;3720;48.274;7.796;2024-03-02T15:02:07;0.93;;;0.77;;
7359;SDS011;3720;48.274;7.796;2024-03-02T15:04:41;1.08;;;0.77;;
7359;SDS011;3720;48.274;7.796;2024-03-02T15:07:15;1.65;;;0.60;;
7359;SDS011;3720;48.274;7.796;2024-03-02T15:09:47;0.70;;;0.63;;
7359;SDS011;3720;48.274;7.796;2024-03-02T15:12:20;0.70;;;0.60;;
7359;SDS011;3720;48.274;7.796;2024-03-02T15:14:53;0.77;;;0.63;;
7359;SDS011;3720;48.274;7.796;2024-03-02T15:17:26;0.85;;;0.75;;
7359;SDS011;3720;48.274;7.796;2024-03-02T15:20:00;1.60;;;0.90;;
7359;SDS011;3720;48.274;7.796;2024-03-02T15:22:34;2.03;;;0.70;;
7359;SDS011;3720;48.274;7.796;2024-03-02T15:25:07;1.77;;;0.60;;
7359;SDS011;3720;48.274;7.796;2024-03-02T15:27:39;1.23;;;0.68;;
7359;SDS011;3720;48.274;7.796;2024-03-02T15:30:12;1.20;;;0.82;;
7359;SDS011;3720;48.274;7.796;2024-03-02T15:32:45;1.70;;;1.20;;
7359;SDS011;3720;48.274;7.796;2024-03-02T15:35:18;1.45;;;1.10;;
7359;SDS011;3720;48.274;7.796;2024-03-02T15:37:51;1.35;;;1.20;;
7359;SDS011;3720;48.274;7.796;2024-03-02T15:40:24;1.40;;;1.30;;
7359;SDS011;3720;48.274;7.796;2024-03-02T15:42:58;2.03;;;1.25;;
7359;SDS011;3720;48.274;7.796;2024-03-02T15:45:31;2.15;;;1.50;;
7359;SDS011;3720;48.274;7.796;2024-03-02T15:48:04;2.10;;;1.65;;
7359;SDS011;3720;48.274;7.796;2024-03-02T15:50:38;2.67;;;1.90;;
7359;SDS011;3720;48.274;7.796;2024-03-02T15:53:10;4.22;;;2.90;;